Time;durP1;ratioP1;P1;durP2;ratioP2;P2;SDS_P1;SDS_P2;PMS_P1;PMS_P2;Temp;Humidity;BMP_temperature;BMP_pressure;BME280_temperature;BME280_humidity;BME280_pressure;Samples;Min_cycle;Max_cycle;Signal;HPM_P1;HPM_P2
2022/03/13 00:00:22;;;;;;;2.50;2.30;;;11.70;99.90;;;;;;4993874;28;20235;-54
2022/03/13 00:02:49;;;;;;;3.40;2.63;;;11.70;99.90;;;;;;4993822;28;20185;-55
2022/03/13 00:05:16;;;;;;;2.45;2.22;;;11.70;99.90;;;;;;4993725;28;20268;-56
2022/03/13 00:07:43;;;;;;;3.25;2.30;;;11.70;99.90;;;;;;4992405;28;20638;-55
2022/03/13 00:10:10;;;;;;;5.65;2.47;;;11.60;99.90;;;;;;4993877;28;20188;-54
2022/03/13 00:12:36;;;;;;;3.85;2.38;;;11.70;99.90;;;;;;4993495;28;20304;-56
2022/03/13 00:15:05;;;;;;;2.50;2.25;;;11.70;99.90;;;;;;4992242;28;20181;-55
2022/03/13 00:17:31;;;;;;;2.90;2.45;;;11.60;99.90;;;;;;4993644;28;20197;-54
2022/03/13 00:20:00;;;;;;;3.63;2.75;;;11.60;99.90;;;;;;4993632;28;20181;-55
2022/03/13 00:22:33;;;;;;;2.83;2.35;;;11.40;99.90;;;;;;4992339;28;20181;-55
2022/03/13 00:24:59;;;;;;;2.53;2.33;;;11.40;99.90;;;;;;4993557;28;20166;-53
2022/03/13 00:27:30;;;;;;;2.50;2.30;;;11.40;99.90;;;;;;4992398;28;20272;-54
2022/03/13 00:29:55;;;;;;;2.85;2.55;;;11.40;99.90;;;;;;4994651;28;20188;-53
2022/03/13 00:32:22;;;;;;;2.50;2.30;;;11.30;99.90;;;;;;4997294;28;20562;-54
2022/03/13 00:34:47;;;;;;;2.58;2.38;;;11.20;99.90;;;;;;4997329;28;20181;-55
2022/03/13 00:37:13;;;;;;;3.03;2.60;;;11.30;99.90;;;;;;4996184;28;20264;-56
2022/03/13 00:39:40;;;;;;;2.50;2.30;;;11.10;99.90;;;;;;4996968;28;20663;-54
2022/03/13 00:42:07;;;;;;;3.00;2.45;;;11.20;99.90;;;;;;4997261;28;20185;-53
2022/03/13 00:44:33;;;;;;;2.40;2.20;;;11.20;99.90;;;;;;4997161;28;20192;-54
2022/03/13 00:46:59;;;;;;;2.80;2.40;;;11.20;99.90;;;;;;4997145;28;20205;-56
2022/03/13 00:49:24;;;;;;;3.17;2.33;;;11.10;99.90;;;;;;4996921;28;20598;-55
2022/03/13 00:51:50;;;;;;;2.83;2.35;;;11.20;99.90;;;;;;4996833;28;20184;-55
2022/03/13 00:54:16;;;;;;;2.95;2.53;;;11.20;99.90;;;;;;4996838;28;20205;-53
2022/03/13 00:56:41;;;;;;;2.78;2.50;;;11.20;99.90;;;;;;4995683;28;20268;-54
2022/03/13 00:59:07;;;;;;;2.63;2.42;;;11.30;99.90;;;;;;4996952;28;20173;-54
2022/03/13 01:01:33;;;;;;;4.25;2.95;;;11.30;99.90;;;;;;4996692;28;20192;-52
2022/03/13 01:03:58;;;;;;;2.63;2.42;;;11.30;99.90;;;;;;4995501;28;20181;-56
2022/03/13 01:06:24;;;;;;;2.55;2.35;;;11.30;99.90;;;;;;4995514;28;20177;-54
2022/03/13 01:08:51;;;;;;;3.65;2.67;;;11.30;99.90;;;;;;4996355;28;20229;-56
2022/03/13 01:11:19;;;;;;;3.60;2.90;;;11.30;99.90;;;;;;4996933;28;20705;-56
2022/03/13 01:13:45;;;;;;;2.58;2.38;;;11.40;99.90;;;;;;4996419;28;20540;-55
2022/03/13 01:16:25;;;;;;;2.72;2.53;;;11.30;99.90;;;;;;4995372;28;20185;-53
2022/03/13 01:18:52;;;;;;;3.08;2.55;;;11.20;99.90;;;;;;4996474;28;20240;-55
2022/03/13 01:21:19;;;;;;;3.00;2.60;;;11.30;99.90;;;;;;4996351;28;20188;-54
2022/03/13 01:24:14;;;;;;;3.30;2.92;;;11.30;99.90;;;;;;4996564;28;20639;-54
2022/03/13 01:26:41;;;;;;;3.88;2.90;;;11.40;99.90;;;;;;4991469;28;20185;-54
2022/03/13 01:29:12;;;;;;;3.05;2.70;;;11.30;99.90;;;;;;4995101;28;20181;-55
2022/03/13 01:31:46;;;;;;;3.92;2.80;;;11.30;99.90;;;;;;4996201;28;20205;-56
2022/03/13 01:34:13;;;;;;;3.00;2.70;;;11.30;99.90;;;;;;4996390;28;20682;-56
2022/03/13 01:36:39;;;;;;;3.30;2.92;;;11.40;99.90;;;;;;4996270;28;20173;-53
2022/03/13 01:39:08;;;;;;;3.33;3.03;;;11.40;99.90;;;;;;4996061;28;20186;-54
2022/03/13 01:41:35;;;;;;;3.20;2.85;;;11.30;99.90;;;;;;4994982;28;20631;-55
2022/03/13 01:44:02;;;;;;;3.80;2.85;;;11.30;99.90;;;;;;4995933;28;20177;-54
2022/03/13 01:46:28;;;;;;;3.22;2.92;;;11.30;99.90;;;;;;4995904;28;20662;-52
2022/03/13 01:49:06;;;;;;;4.75;3.05;;;11.30;99.90;;;;;;4995834;28;20173;-52
2022/03/13 01:51:33;;;;;;;3.40;3.10;;;11.30;99.90;;;;;;4998568;28;20168;-55
2022/03/13 01:54:02;;;;;;;4.28;3.33;;;11.30;99.90;;;;;;5015285;28;20208;-52
2022/03/13 01:56:30;;;;;;;3.72;3.28;;;11.40;99.90;;;;;;5015208;28;20637;-54
2022/03/13 01:58:56;;;;;;;4.13;3.80;;;11.30;99.90;;;;;;5015442;28;20239;-54
2022/03/13 02:01:25;;;;;;;3.55;3.22;;;11.40;99.90;;;;;;5015332;28;20200;-52
2022/03/13 02:03:51;;;;;;;3.92;3.55;;;11.40;99.90;;;;;;5015132;28;20173;-51
2022/03/13 02:06:18;;;;;;;4.30;3.47;;;11.40;99.90;;;;;;5015162;28;20259;-55
2022/03/13 02:08:45;;;;;;;3.67;3.38;;;11.30;99.90;;;;;;5013829;28;20216;-55
2022/03/13 02:11:16;;;;;;;3.33;3.03;;;11.30;99.90;;;;;;5013671;28;20667;-54
2022/03/13 02:13:43;;;;;;;3.50;2.95;;;11.20;99.90;;;;;;5013896;28;20884;-55
2022/03/13 02:16:09;;;;;;;4.20;3.63;;;11.30;99.90;;;;;;5015153;28;20173;-52
2022/03/13 02:18:35;;;;;;;3.90;3.45;;;11.30;99.90;;;;;;5014887;28;20600;-55
2022/03/13 02:21:01;;;;;;;4.40;3.35;;;11.30;99.90;;;;;;5014929;28;20255;-54
2022/03/13 02:23:30;;;;;;;4.18;3.42;;;11.30;99.90;;;;;;5014819;28;20181;-55
2022/03/13 02:25:58;;;;;;;4.32;3.58;;;11.30;99.90;;;;;;5014689;28;20217;-53
2022/03/13 02:28:29;;;;;;;4.10;3.42;;;11.20;99.90;;;;;;5014738;28;20169;-54
2022/03/13 02:31:02;;;;;;;3.97;3.35;;;11.30;99.90;;;;;;5014854;28;20204;-55
2022/03/13 02:33:28;;;;;;;4.55;3.53;;;11.20;99.90;;;;;;5014684;28;20355;-54
2022/03/13 02:35:57;;;;;;;4.07;3.63;;;11.20;99.90;;;;;;5014563;28;20180;-52
2022/03/13 02:38:24;;;;;;;3.97;3.58;;;11.20;99.90;;;;;;5014367;28;20527;-55
2022/03/13 02:40:51;;;;;;;3.90;3.30;;;11.20;99.90;;;;;;5014696;28;20185;-55
2022/03/13 02:43:17;;;;;;;3.25;2.95;;;11.30;99.90;;;;;;5013407;28;20176;-56
2022/03/13 02:45:43;;;;;;;4.10;3.70;;;11.20;99.90;;;;;;5014536;28;20697;-54
2022/03/13 02:48:10;;;;;;;4.40;4.00;;;11.10;99.90;;;;;;5014414;28;20173;-55
2022/03/13 02:50:36;;;;;;;4.57;3.50;;;11.00;99.90;;;;;;5014233;28;20251;-55
2022/03/13 02:53:03;;;;;;;4.60;4.10;;;11.00;99.90;;;;;;5013968;28;20204;-56
2022/03/13 02:55:29;;;;;;;5.50;3.90;;;11.00;99.90;;;;;;5013096;28;20181;-55
2022/03/13 02:57:55;;;;;;;4.18;3.78;;;11.00;99.90;;;;;;5013082;28;20173;-53
2022/03/13 03:00:22;;;;;;;4.63;4.20;;;11.00;99.90;;;;;;5013057;28;20172;-55
2022/03/13 03:02:48;;;;;;;4.72;4.28;;;11.00;99.90;;;;;;5014152;28;20184;-51
2022/03/13 03:05:14;;;;;;;4.22;3.83;;;11.00;99.90;;;;;;5012868;28;20599;-55
2022/03/13 03:07:41;;;;;;;4.35;3.95;;;10.90;99.90;;;;;;5014006;28;20618;-55
2022/03/13 03:10:15;;;;;;;4.15;3.78;;;11.00;99.90;;;;;;5014020;28;20246;-53
2022/03/13 03:12:40;;;;;;;4.45;3.72;;;11.10;99.90;;;;;;5013858;28;20200;-51
2022/03/13 03:15:06;;;;;;;5.80;4.32;;;11.10;99.90;;;;;;5012690;28;20173;-51
2022/03/13 03:17:32;;;;;;;4.57;4.18;;;11.10;99.90;;;;;;5012991;28;20168;-53
2022/03/13 03:19:57;;;;;;;4.97;4.28;;;11.00;99.90;;;;;;4996393;28;20176;-53
2022/03/13 03:22:23;;;;;;;4.72;4.25;;;10.90;99.90;;;;;;5012695;28;20185;-54
2022/03/13 03:24:49;;;;;;;4.90;4.40;;;10.90;99.90;;;;;;5013686;28;20183;-51
2022/03/13 03:27:18;;;;;;;4.85;4.40;;;11.00;99.90;;;;;;5012573;28;20169;-54
2022/03/13 03:29:44;;;;;;;6.20;4.43;;;11.00;99.90;;;;;;5013733;28;20267;-52
2022/03/13 03:32:10;;;;;;;4.95;4.13;;;11.00;99.90;;;;;;5012331;28;20208;-53
2022/03/13 03:34:35;;;;;;;5.95;4.82;;;10.90;99.90;;;;;;5012388;28;20208;-54
2022/03/13 03:37:03;;;;;;;4.95;4.40;;;11.00;99.90;;;;;;5012377;28;20173;-55
2022/03/13 03:39:30;;;;;;;5.22;4.50;;;11.00;99.90;;;;;;5013499;28;20184;-53
2022/03/13 03:41:56;;;;;;;5.50;4.70;;;11.00;99.90;;;;;;5013686;28;20641;-55
2022/03/13 03:44:23;;;;;;;5.75;5.00;;;11.00;99.90;;;;;;5013620;28;20181;-55
2022/03/13 03:46:50;;;;;;;5.28;4.78;;;11.00;99.90;;;;;;5013555;28;20208;-52
2022/03/13 03:49:17;;;;;;;4.72;4.32;;;11.00;99.90;;;;;;5013441;28;20646;-55
2022/03/13 03:51:43;;;;;;;5.78;4.50;;;10.90;99.90;;;;;;5013650;28;20192;-50
2022/03/13 03:54:10;;;;;;;4.60;4.20;;;11.00;99.90;;;;;;5013384;28;20574;-50
2022/03/13 03:56:36;;;;;;;6.05;4.75;;;11.00;99.90;;;;;;5013321;28;20180;-52
2022/03/13 03:59:03;;;;;;;4.95;4.45;;;11.10;99.90;;;;;;5012143;28;20179;-51
2022/03/13 04:01:40;;;;;;;6.75;5.00;;;11.00;99.90;;;;;;5013325;28;20168;-54
2022/03/13 04:04:08;;;;;;;5.25;4.75;;;11.10;99.90;;;;;;5013585;28;20267;-55
2022/03/13 04:06:37;;;;;;;5.40;4.90;;;11.00;99.90;;;;;;5017392;28;20188;-54
2022/03/13 04:09:04;;;;;;;6.10;5.20;;;11.10;99.90;;;;;;5017637;28;20176;-59
2022/03/13 04:11:30;;;;;;;6.25;4.63;;;11.10;99.90;;;;;;5017402;28;20180;-53
2022/03/13 04:13:56;;;;;;;5.47;4.63;;;11.10;99.90;;;;;;5016010;28;20204;-52
2022/03/13 04:16:21;;;;;;;5.15;4.65;;;11.10;99.90;;;;;;5017659;28;20180;-54
2022/03/13 04:18:47;;;;;;;5.57;5.07;;;11.00;99.90;;;;;;5017278;28;20641;-54
2022/03/13 04:21:13;;;;;;;5.55;5.03;;;11.10;99.90;;;;;;5017284;28;20177;-54
2022/03/13 04:23:39;;;;;;;5.80;5.28;;;11.20;99.90;;;;;;5017201;28;20565;-52
2022/03/13 04:26:05;;;;;;;6.22;5.53;;;11.20;99.90;;;;;;5017122;28;20181;-53
2022/03/13 04:28:31;;;;;;;6.15;5.53;;;11.10;99.90;;;;;;5017046;28;20169;-53
2022/03/13 04:30:59;;;;;;;5.70;5.10;;;11.10;99.90;;;;;;5015627;28;20184;-55
2022/03/13 04:33:26;;;;;;;5.15;4.70;;;11.10;99.90;;;;;;5016951;28;20303;-54
2022/03/13 04:35:55;;;;;;;5.30;4.80;;;11.00;99.90;;;;;;5015704;28;20691;-54
2022/03/13 04:38:21;;;;;;;5.97;5.38;;;11.00;99.90;;;;;;4999393;28;20183;-53
2022/03/13 04:40:47;;;;;;;6.55;5.13;;;11.00;99.90;;;;;;5016600;28;20275;-52
2022/03/13 04:43:12;;;;;;;5.60;5.07;;;11.00;99.90;;;;;;5015447;28;20216;-53
2022/03/13 04:45:38;;;;;;;6.03;5.43;;;11.10;99.90;;;;;;5016836;28;20646;-50
2022/03/13 04:48:04;;;;;;;5.70;5.10;;;11.10;99.90;;;;;;5017041;28;20177;-55
2022/03/13 04:50:30;;;;;;;5.55;4.63;;;11.00;99.90;;;;;;5015841;28;20180;-53
2022/03/13 04:52:56;;;;;;;5.65;4.78;;;11.00;99.90;;;;;;5015221;28;20204;-54
2022/03/13 04:55:21;;;;;;;5.55;4.97;;;11.00;99.90;;;;;;5016390;28;20230;-55
2022/03/13 04:57:47;;;;;;;5.57;4.85;;;11.00;99.90;;;;;;5016417;28;20181;-55
2022/03/13 05:00:14;;;;;;;6.47;5.00;;;11.00;99.90;;;;;;5015402;28;20196;-53
2022/03/13 05:02:39;;;;;;;5.15;4.65;;;11.00;99.90;;;;;;5016472;28;20189;-55
2022/03/13 05:05:06;;;;;;;5.45;4.78;;;11.00;99.90;;;;;;5015152;28;20230;-54
2022/03/13 05:07:32;;;;;;;5.72;4.47;;;10.90;99.90;;;;;;5015905;28;20248;-54
2022/03/13 05:09:58;;;;;;;4.85;4.35;;;10.90;99.90;;;;;;5015941;28;20554;-54
2022/03/13 05:12:27;;;;;;;5.07;4.57;;;10.90;99.90;;;;;;5015933;28;20195;-54
2022/03/13 05:14:53;;;;;;;5.68;4.75;;;10.80;99.90;;;;;;5016348;28;20607;-55
2022/03/13 05:17:20;;;;;;;5.03;4.53;;;10.80;99.90;;;;;;5015843;28;20197;-55
2022/03/13 05:19:46;;;;;;;4.93;4.53;;;10.70;99.90;;;;;;5014940;28;20207;-54
2022/03/13 05:22:12;;;;;;;5.22;4.70;;;10.60;99.90;;;;;;5014876;28;20204;-54
2022/03/13 05:24:37;;;;;;;5.35;4.72;;;10.60;99.90;;;;;;5015905;28;20180;-55
2022/03/13 05:27:03;;;;;;;4.50;4.10;;;10.60;99.90;;;;;;5016067;28;20176;-53
2022/03/13 05:29:29;;;;;;;5.50;4.97;;;10.50;99.90;;;;;;5015821;28;20207;-54
2022/03/13 05:31:55;;;;;;;5.90;4.88;;;10.50;99.90;;;;;;5015773;28;20172;-54
2022/03/13 05:34:20;;;;;;;5.60;4.97;;;10.50;99.90;;;;;;5015841;28;20212;-54
2022/03/13 05:36:46;;;;;;;5.95;5.30;;;10.40;99.90;;;;;;5015614;28;20657;-52
2022/03/13 05:39:12;;;;;;;5.70;5.20;;;10.40;99.90;;;;;;5015829;28;20695;-55
2022/03/13 05:41:40;;;;;;;7.07;6.38;;;10.30;99.90;;;;;;5015508;28;20173;-53
2022/03/13 05:44:09;;;;;;;10.48;9.18;;;10.20;99.90;;;;;;5015729;28;20196;-52
2022/03/13 05:46:36;;;;;;;10.23;8.73;;;10.20;99.90;;;;;;5015588;28;20315;-52
2022/03/13 05:49:03;;;;;;;10.48;9.38;;;10.20;99.90;;;;;;5015400;28;20196;-55
2022/03/13 05:51:37;;;;;;;12.63;9.68;;;10.20;99.90;;;;;;5015075;28;20171;-55
2022/03/13 05:54:06;;;;;;;11.15;9.95;;;10.20;99.90;;;;;;5015404;28;20212;-50
2022/03/13 05:56:32;;;;;;;11.48;10.05;;;10.20;99.90;;;;;;5015583;28;20664;-55
2022/03/13 05:58:58;;;;;;;10.02;8.48;;;10.30;99.90;;;;;;5014238;28;20169;-53
2022/03/13 06:01:24;;;;;;;11.35;10.05;;;10.20;99.90;;;;;;5014142;28;20212;-53
2022/03/13 06:03:49;;;;;;;8.95;7.50;;;10.20;99.90;;;;;;5015393;28;20187;-54
2022/03/13 06:06:15;;;;;;;10.98;9.52;;;10.30;99.90;;;;;;5015470;28;20180;-55
2022/03/13 06:08:41;;;;;;;9.25;8.20;;;10.20;99.90;;;;;;5015119;28;20215;-54
2022/03/13 06:11:08;;;;;;;10.80;9.07;;;10.20;99.90;;;;;;5014254;28;20188;-52
2022/03/13 06:13:34;;;;;;;8.73;7.82;;;10.30;99.90;;;;;;5013606;28;20208;-54
2022/03/13 06:15:59;;;;;;;14.45;11.50;;;10.30;99.90;;;;;;5015101;28;20181;-55
2022/03/13 06:18:27;;;;;;;9.93;8.88;;;10.30;99.90;;;;;;5013731;28;20177;-55
2022/03/13 06:20:53;;;;;;;13.90;12.45;;;10.40;99.90;;;;;;5014394;28;20176;-55
2022/03/13 06:23:20;;;;;;;11.25;10.13;;;10.40;99.90;;;;;;5013295;28;20180;-54
2022/03/13 06:25:45;;;;;;;10.15;8.68;;;10.40;99.90;;;;;;5015042;28;20173;-53
2022/03/13 06:28:12;;;;;;;11.90;9.43;;;10.50;99.90;;;;;;5014343;28;20184;-50
2022/03/13 06:30:38;;;;;;;9.18;8.15;;;10.40;99.90;;;;;;5013471;28;20673;-54
2022/03/13 06:33:04;;;;;;;10.73;9.43;;;10.40;99.90;;;;;;5014541;28;20658;-56
2022/03/13 06:35:30;;;;;;;9.40;8.18;;;10.40;99.90;;;;;;5013322;28;20225;-56
2022/03/13 06:37:56;;;;;;;12.38;9.65;;;10.40;99.90;;;;;;5014525;28;20176;-53
2022/03/13 06:40:23;;;;;;;10.98;9.88;;;10.40;99.90;;;;;;5013387;28;20668;-53
2022/03/13 06:42:52;;;;;;;12.20;9.80;;;10.40;99.90;;;;;;5014673;28;20286;-55
2022/03/13 06:45:19;;;;;;;13.32;10.90;;;10.50;99.90;;;;;;5014487;28;20208;-52
2022/03/13 06:47:46;;;;;;;10.30;9.30;;;10.30;99.90;;;;;;5013054;28;20295;-53
2022/03/13 06:50:17;;;;;;;10.65;9.63;;;10.20;99.90;;;;;;5014292;28;20235;-51
2022/03/13 06:52:44;;;;;;;11.23;9.77;;;10.30;99.90;;;;;;5014490;28;20243;-55
2022/03/13 06:55:12;;;;;;;11.18;9.90;;;10.30;99.90;;;;;;5014405;28;20529;-56
2022/03/13 06:57:39;;;;;;;13.13;10.15;;;10.20;99.90;;;;;;5014359;28;20185;-54
2022/03/13 07:00:05;;;;;;;11.30;10.20;;;10.30;99.90;;;;;;4996759;28;20203;-54
2022/03/13 07:02:31;;;;;;;11.25;10.10;;;10.30;99.90;;;;;;4996481;28;20188;-54
2022/03/13 07:04:57;;;;;;;12.43;10.38;;;10.40;99.90;;;;;;5014332;28;20537;-55
2022/03/13 07:07:22;;;;;;;10.85;9.75;;;10.50;99.90;;;;;;5013933;28;20184;-53
2022/03/13 07:09:49;;;;;;;11.10;10.00;;;10.50;99.90;;;;;;5012650;28;20247;-55
2022/03/13 07:12:15;;;;;;;11.63;10.18;;;10.60;99.90;;;;;;5013844;28;20255;-55
2022/03/13 07:14:45;;;;;;;10.68;9.63;;;10.60;99.90;;;;;;5012210;28;20205;-56
2022/03/13 07:17:11;;;;;;;12.32;10.70;;;10.80;99.90;;;;;;5025430;28;20199;-53
2022/03/13 07:19:37;;;;;;;11.45;10.25;;;10.80;99.90;;;;;;5032049;28;20184;-56
2022/03/13 07:22:04;;;;;;;11.70;10.50;;;10.90;99.90;;;;;;5033442;28;20264;-56
2022/03/13 07:24:29;;;;;;;12.38;11.18;;;11.00;99.90;;;;;;5033334;28;20263;-54
2022/03/13 07:26:55;;;;;;;13.15;11.07;;;11.00;99.90;;;;;;5031971;28;20705;-53
2022/03/13 07:29:20;;;;;;;12.45;11.15;;;11.10;99.90;;;;;;5032388;28;20238;-53
2022/03/13 07:31:46;;;;;;;13.50;12.02;;;11.10;99.90;;;;;;5033212;28;20179;-56
2022/03/13 07:34:12;;;;;;;11.65;10.50;;;11.20;99.90;;;;;;5032360;28;20211;-53
2022/03/13 07:36:39;;;;;;;12.05;10.82;;;11.30;99.90;;;;;;5033390;28;20588;-54
2022/03/13 07:39:05;;;;;;;13.38;11.45;;;11.30;99.90;;;;;;5032446;28;20180;-54
2022/03/13 07:41:31;;;;;;;13.02;11.65;;;11.40;99.90;;;;;;5032718;28;20168;-53
2022/03/13 07:43:57;;;;;;;12.57;11.27;;;11.40;99.90;;;;;;5031938;28;20187;-53
2022/03/13 07:46:23;;;;;;;13.48;11.75;;;11.60;99.90;;;;;;5013228;28;20185;-52
2022/03/13 07:48:48;;;;;;;13.77;11.70;;;11.70;99.90;;;;;;4993662;28;20181;-54
2022/03/13 07:51:14;;;;;;;13.90;12.40;;;11.80;99.90;;;;;;4993847;28;20177;-54
2022/03/13 07:53:40;;;;;;;12.80;11.50;;;11.90;99.90;;;;;;4993032;28;20213;-55
2022/03/13 07:56:05;;;;;;;13.05;11.25;;;12.10;99.90;;;;;;4990455;28;20177;-53
2022/03/13 07:58:32;;;;;;;15.77;11.98;;;12.10;99.90;;;;;;4992245;28;20697;-53
2022/03/13 08:00:58;;;;;;;12.88;11.20;;;12.10;99.90;;;;;;4992743;28;20598;-53
2022/03/13 08:03:29;;;;;;;12.35;11.02;;;12.20;99.90;;;;;;4992750;28;20196;-56
2022/03/13 08:05:55;;;;;;;12.32;10.55;;;12.30;99.90;;;;;;4992969;28;20173;-52
2022/03/13 08:08:21;;;;;;;13.00;11.30;;;12.30;99.90;;;;;;4993298;28;20177;-53
2022/03/13 08:10:47;;;;;;;13.00;10.40;;;12.60;99.90;;;;;;4993724;28;20224;-54
2022/03/13 08:13:12;;;;;;;12.02;10.73;;;12.60;99.90;;;;;;4993449;28;20570;-54
2022/03/13 08:15:38;;;;;;;13.38;10.25;;;12.70;99.90;;;;;;4993656;28;20280;-55
2022/03/13 08:18:04;;;;;;;12.50;10.23;;;12.70;99.90;;;;;;4993539;28;20640;-54
2022/03/13 08:20:30;;;;;;;13.23;11.18;;;12.80;99.90;;;;;;4993703;28;20173;-55
2022/03/13 08:22:55;;;;;;;12.80;9.57;;;12.90;99.90;;;;;;4975683;28;20197;-53
2022/03/13 08:25:21;;;;;;;11.23;9.15;;;13.00;99.90;;;;;;5007416;28;20282;-56
2022/03/13 08:27:48;;;;;;;11.30;8.57;;;13.20;99.90;;;;;;5012872;28;20192;-54
2022/03/13 08:30:14;;;;;;;9.73;8.43;;;13.30;99.90;;;;;;5011754;28;20223;-54
2022/03/13 08:32:40;;;;;;;11.13;8.55;;;13.30;99.90;;;;;;5013227;28;20224;-51
2022/03/13 08:35:09;;;;;;;8.82;7.57;;;13.30;99.90;;;;;;5013017;28;20227;-55
2022/03/13 08:37:36;;;;;;;9.40;8.40;;;13.50;99.90;;;;;;5012952;28;20173;-53
2022/03/13 08:40:04;;;;;;;8.50;7.70;;;13.60;99.90;;;;;;5012847;28;20661;-55
2022/03/13 08:42:30;;;;;;;8.52;7.63;;;13.80;99.90;;;;;;5012743;28;20185;-55
2022/03/13 08:44:57;;;;;;;7.78;6.97;;;13.90;99.90;;;;;;5012653;28;20180;-54
2022/03/13 08:47:23;;;;;;;11.23;7.25;;;13.90;99.90;;;;;;5012871;28;20220;-56
2022/03/13 08:49:50;;;;;;;8.30;7.22;;;14.10;99.90;;;;;;5012896;28;20591;-54
2022/03/13 08:52:16;;;;;;;10.85;7.10;;;14.20;99.90;;;;;;5015866;28;20172;-54
2022/03/13 08:54:41;;;;;;;9.52;7.22;;;14.20;99.90;;;;;;5016419;28;20584;-54
2022/03/13 08:57:07;;;;;;;9.60;7.38;;;14.20;99.90;;;;;;5016223;28;20260;-55
2022/03/13 08:59:36;;;;;;;9.45;7.70;;;14.20;99.90;;;;;;5017157;28;20177;-52
2022/03/13 09:02:03;;;;;;;9.77;7.78;;;14.10;99.90;;;;;;5036091;28;20176;-52
2022/03/13 09:04:29;;;;;;;8.23;7.30;;;14.20;99.90;;;;;;5036045;28;20263;-56
2022/03/13 09:06:56;;;;;;;8.65;7.47;;;14.40;99.90;;;;;;5035879;28;20537;-53
2022/03/13 09:09:22;;;;;;;13.27;8.45;;;14.50;99.90;;;;;;5034495;28;20286;-56
2022/03/13 09:11:50;;;;;;;9.75;7.30;;;14.60;99.90;;;;;;5035911;28;20207;-55
2022/03/13 09:14:16;;;;;;;8.40;7.55;;;14.50;99.90;;;;;;5035796;28;20256;-58
2022/03/13 09:16:42;;;;;;;9.07;7.15;;;14.50;99.90;;;;;;5019326;28;20173;-56
2022/03/13 09:19:09;;;;;;;7.35;6.50;;;14.50;99.90;;;;;;4996420;28;20713;-55
2022/03/13 09:21:38;;;;;;;10.48;7.13;;;14.40;99.90;;;;;;4996555;28;20539;-55
2022/03/13 09:24:08;;;;;;;8.48;7.05;;;14.60;99.90;;;;;;4996247;28;20538;-54
2022/03/13 09:26:35;;;;;;;8.57;7.40;;;14.50;99.90;;;;;;4996280;28;20248;-56
2022/03/13 09:29:04;;;;;;;8.40;6.72;;;14.50;99.90;;;;;;4996444;28;20192;-55
2022/03/13 09:31:30;;;;;;;8.40;7.05;;;14.70;99.90;;;;;;4996408;28;20173;-54
2022/03/13 09:33:56;;;;;;;8.15;6.55;;;14.70;99.90;;;;;;4996206;28;20316;-55
2022/03/13 09:36:21;;;;;;;7.53;6.43;;;15.00;99.90;;;;;;4996155;28;20185;-56
2022/03/13 09:38:47;;;;;;;7.32;6.63;;;14.90;99.90;;;;;;4994872;28;20236;-54
2022/03/13 09:41:12;;;;;;;9.20;6.75;;;15.00;99.90;;;;;;4994767;28;20247;-54
2022/03/13 09:43:40;;;;;;;8.23;6.15;;;15.00;99.90;;;;;;4995958;28;20185;-56
2022/03/13 09:46:05;;;;;;;6.65;5.68;;;15.10;99.90;;;;;;4995784;28;20243;-54
2022/03/13 09:48:35;;;;;;;6.60;5.90;;;15.30;99.90;;;;;;4996058;28;20177;-55
2022/03/13 09:51:04;;;;;;;6.45;5.68;;;15.50;99.90;;;;;;4995924;28;20529;-56
2022/03/13 09:53:30;;;;;;;6.38;5.32;;;15.50;99.90;;;;;;4994501;28;20212;-54
2022/03/13 09:55:57;;;;;;;7.13;5.93;;;15.60;99.90;;;;;;4995829;28;20623;-56
2022/03/13 09:58:23;;;;;;;6.15;5.55;;;15.60;99.90;;;;;;4995918;28;20174;-54
2022/03/13 10:00:48;;;;;;;6.90;5.18;;;15.60;99.90;;;;;;4995915;28;20182;-56
2022/03/13 10:03:14;;;;;;;5.75;4.97;;;15.80;99.90;;;;;;4994792;28;20636;-57
2022/03/13 10:05:45;;;;;;;5.60;4.55;;;15.70;99.90;;;;;;4994498;28;20235;-56
2022/03/13 10:08:12;;;;;;;6.13;5.13;;;15.70;99.90;;;;;;4995501;28;20264;-55
2022/03/13 10:10:44;;;;;;;6.97;5.30;;;15.70;99.90;;;;;;4993764;28;20676;-55
2022/03/13 10:13:11;;;;;;;5.28;4.75;;;15.90;99.90;;;;;;4995399;28;20213;-56
2022/03/13 10:15:47;;;;;;;5.07;4.57;;;15.80;99.90;;;;;;4995474;28;20181;-57
2022/03/13 10:18:24;;;;;;;6.13;4.70;;;15.90;99.90;;;;;;4995135;28;20177;-56
2022/03/13 10:20:50;;;;;;;4.40;4.00;;;15.90;99.90;;;;;;4995554;28;20184;-56
2022/03/13 10:23:18;;;;;;;4.38;3.85;;;16.00;99.90;;;;;;4995470;28;20527;-55
2022/03/13 10:25:45;;;;;;;5.47;4.13;;;16.10;99.90;;;;;;5003565;28;20591;-56
2022/03/13 10:28:30;;;;;;;5.90;3.55;;;16.00;99.90;;;;;;5014722;28;20176;-56
2022/03/13 10:30:58;;;;;;;4.18;3.78;;;16.00;99.90;;;;;;5014584;28;20180;-55
2022/03/13 10:33:48;;;;;;;5.30;3.90;;;15.90;99.90;;;;;;5014378;28;20662;-55
2022/03/13 10:36:31;;;;;;;5.50;3.72;;;16.00;99.70;;;;;;5014736;28;20181;-57
2022/03/13 10:38:58;;;;;;;4.88;4.38;;;16.20;99.80;;;;;;5014525;28;20292;-57
2022/03/13 10:41:42;;;;;;;3.85;3.53;;;16.30;99.40;;;;;;5014688;28;20176;-57
2022/03/13 10:44:13;;;;;;;4.07;3.67;;;16.30;98.00;;;;;;5014652;28;20220;-57
2022/03/13 10:46:40;;;;;;;4.00;3.28;;;16.20;98.10;;;;;;5010650;28;20174;-57
2022/03/13 10:49:09;;;;;;;5.70;3.63;;;16.10;99.20;;;;;;4994825;28;20216;-57
2022/03/13 10:51:45;;;;;;;4.10;3.65;;;16.20;98.70;;;;;;5018528;28;20172;-57
2022/03/13 10:54:30;;;;;;;4.18;3.78;;;16.10;99.00;;;;;;5033462;28;20204;-57
2022/03/13 10:57:10;;;;;;;3.72;3.17;;;16.10;99.30;;;;;;5014650;28;20172;-57
2022/03/13 10:59:41;;;;;;;4.90;3.45;;;16.10;98.80;;;;;;5010460;28;20192;-57
2022/03/13 11:02:18;;;;;;;5.25;4.07;;;16.20;99.10;;;;;;5013695;28;20263;-56
2022/03/13 11:04:50;;;;;;;5.45;3.83;;;16.30;98.80;;;;;;5014124;28;20177;-58
2022/03/13 11:07:16;;;;;;;5.20;3.35;;;16.50;98.50;;;;;;5013991;28;20180;-57
2022/03/13 11:09:42;;;;;;;4.20;3.10;;;16.60;98.20;;;;;;5013720;28;20215;-57
2022/03/13 11:12:12;;;;;;;4.88;3.10;;;16.60;96.90;;;;;;5013728;28;20224;-58
2022/03/13 11:14:40;;;;;;;3.63;3.30;;;16.60;97.60;;;;;;5013549;28;20739;-57
2022/03/13 11:17:07;;;;;;;3.88;3.47;;;16.50;96.70;;;;;;5013450;28;20276;-57
2022/03/13 11:19:36;;;;;;;3.90;3.40;;;16.50;97.80;;;;;;5014038;28;20538;-57
2022/03/13 11:22:02;;;;;;;4.63;2.80;;;16.60;97.30;;;;;;5013586;28;20207;-57
2022/03/13 11:24:29;;;;;;;4.68;2.80;;;16.80;97.20;;;;;;5013545;28;20183;-57
2022/03/13 11:26:56;;;;;;;4.75;3.05;;;17.00;97.90;;;;;;5013553;28;20172;-57
2022/03/13 11:29:43;;;;;;;3.20;2.90;;;17.10;96.90;;;;;;5013446;28;20180;-57
2022/03/13 11:32:28;;;;;;;3.28;2.97;;;17.20;96.30;;;;;;5013453;28;20184;-57
2022/03/13 11:35:18;;;;;;;3.70;3.03;;;17.20;94.90;;;;;;5013628;28;20185;-57
2022/03/13 11:38:14;;;;;;;4.05;3.13;;;17.20;96.30;;;;;;5013544;28;20229;-57
2022/03/13 11:40:41;;;;;;;3.30;2.90;;;17.20;95.50;;;;;;5013334;28;20192;-57
2022/03/13 11:43:09;;;;;;;3.25;2.95;;;17.20;97.20;;;;;;5013418;28;20184;-57
2022/03/13 11:45:39;;;;;;;3.65;2.70;;;17.30;94.30;;;;;;5013397;28;20161;-57
2022/03/13 11:48:05;;;;;;;2.67;2.45;;;17.30;95.40;;;;;;5012878;28;20180;-57
2022/03/13 11:50:54;;;;;;;3.63;2.63;;;17.30;93.90;;;;;;5013191;28;20180;-57
2022/03/13 11:53:25;;;;;;;2.53;2.10;;;17.20;94.40;;;;;;5013296;28;20535;-57
2022/03/13 11:56:02;;;;;;;3.25;2.38;;;17.10;95.00;;;;;;5013587;28;20164;-57
2022/03/13 11:58:51;;;;;;;2.53;2.00;;;17.20;95.70;;;;;;5013140;28;20625;-57
2022/03/13 12:01:21;;;;;;;3.15;2.47;;;17.10;95.80;;;;;;5012345;28;20190;-57
2022/03/13 12:04:04;;;;;;;3.90;2.80;;;17.20;94.70;;;;;;5013441;28;20173;-57
2022/03/13 12:06:41;;;;;;;2.20;2.00;;;17.40;94.60;;;;;;5013283;28;20262;-57
2022/03/13 12:09:17;;;;;;;3.05;2.60;;;17.50;94.20;;;;;;5013104;28;20275;-57
2022/03/13 12:12:00;;;;;;;2.88;2.50;;;17.40;92.90;;;;;;5013534;28;20183;-57
2022/03/13 12:14:51;;;;;;;3.42;2.78;;;17.50;92.50;;;;;;5013433;28;20677;-57
2022/03/13 12:17:18;;;;;;;3.28;2.40;;;17.40;91.50;;;;;;5013118;28;20279;-57
2022/03/13 12:19:45;;;;;;;3.17;2.28;;;17.40;93.20;;;;;;5013214;28;20197;-57
2022/03/13 12:22:11;;;;;;;4.38;2.40;;;17.10;93.60;;;;;;5013296;28;20192;-58
2022/03/13 12:24:37;;;;;;;2.85;2.53;;;17.10;93.40;;;;;;5012816;28;20188;-58
2022/03/13 12:27:05;;;;;;;2.83;2.63;;;17.20;93.70;;;;;;5015560;28;20664;-59
2022/03/13 12:29:32;;;;;;;4.05;2.60;;;17.20;94.40;;;;;;5016974;28;20279;-58
2022/03/13 12:32:00;;;;;;;4.90;3.20;;;17.30;94.50;;;;;;5016754;28;20280;-58
2022/03/13 12:34:30;;;;;;;3.78;2.85;;;17.30;95.00;;;;;;5017036;28;20235;-58
2022/03/13 12:37:07;;;;;;;3.33;3.03;;;17.40;95.60;;;;;;5016809;28;20653;-58
2022/03/13 12:39:33;;;;;;;7.25;3.45;;;17.40;94.60;;;;;;5015711;28;20184;-58
2022/03/13 12:42:01;;;;;;;4.88;3.20;;;17.50;93.10;;;;;;5016720;28;20310;-58
2022/03/13 12:44:30;;;;;;;4.63;3.17;;;17.30;92.70;;;;;;5016566;28;20191;-58
2022/03/13 12:46:57;;;;;;;4.82;3.22;;;17.10;92.80;;;;;;5016549;28;20185;-58